Time;durP1;ratioP1;P1;durP2;ratioP2;P2;SDS_P1;SDS_P2;PMS_P1;PMS_P2;Temp;Humidity;BMP_temperature;BMP_pressure;BME280_temperature;BME280_humidity;BME280_pressure;Samples;Min_cycle;Max_cycle;Signal;HPM_P1;HPM_P2
2021/03/09 00:00:01;;;;;;;6.38;3.05;;;;;;;-1.30;58.49;93437.69;5094346;28;20503;-44
2021/03/09 00:02:26;;;;;;;8.68;4.28;;;;;;;-1.22;58.72;93440.75;5094323;28;20028;-47
2021/03/09 00:04:52;;;;;;;5.50;3.80;;;;;;;-1.28;58.96;93432.56;5094487;28;20024;-46
2021/03/09 00:07:17;;;;;;;5.35;3.10;;;;;;;-1.42;58.74;93444.19;5094360;28;20059;-43
2021/03/09 00:09:43;;;;;;;5.38;2.25;;;;;;;-1.46;58.75;93437.47;5094436;28;20024;-47
2021/03/09 00:12:08;;;;;;;9.68;5.68;;;;;;;-1.46;58.57;93440.94;5094226;28;20404;-44
2021/03/09 00:14:34;;;;;;;5.43;2.88;;;;;;;-1.47;59.76;93436.72;5093989;28;20099;-46
2021/03/09 00:16:59;;;;;;;7.50;5.00;;;;;;;-1.39;58.55;93442.50;5100907;28;20027;-44
2021/03/09 00:19:25;;;;;;;7.22;5.30;;;;;;;-1.16;58.64;93438.88;5114414;28;20119;-44
2021/03/09 00:21:50;;;;;;;11.35;6.07;;;;;;;-1.23;58.33;93433.84;5114433;28;20104;-44
2021/03/09 00:24:16;;;;;;;5.45;3.28;;;;;;;-1.47;59.25;93425.91;5114333;28;20023;-44
2021/03/09 00:26:41;;;;;;;4.50;3.22;;;;;;;-1.47;58.59;93433.31;5114265;28;20053;-44
2021/03/09 00:29:07;;;;;;;2.78;2.40;;;;;;;-1.44;59.41;93440.47;5113910;28;20036;-43
2021/03/09 00:31:32;;;;;;;4.60;3.40;;;;;;;-1.48;59.47;93434.50;5114282;28;20023;-44
2021/03/09 00:33:58;;;;;;;3.55;2.55;;;;;;;-1.60;59.17;93437.06;5114084;28;20027;-45
2021/03/09 00:36:23;;;;;;;3.95;3.40;;;;;;;-1.48;58.68;93434.50;5114322;28;20020;-45
2021/03/09 00:38:48;;;;;;;4.38;3.78;;;;;;;-1.45;58.84;93431.59;5114085;28;20035;-44
2021/03/09 00:41:14;;;;;;;4.60;3.55;;;;;;;-1.81;60.41;93427.41;5114176;28;20420;-45
2021/03/09 00:43:39;;;;;;;7.28;3.33;;;;;;;-1.82;60.58;93439.44;5113914;28;20031;-45
2021/03/09 00:46:05;;;;;;;1.25;1.23;;;;;;;-1.84;60.18;93439.16;5113772;28;20039;-44
2021/03/09 00:48:40;;;;;;;4.93;1.55;;;;;;;-1.92;60.56;93440.75;5114415;28;20030;-44
2021/03/09 00:51:06;;;;;;;1.90;1.77;;;;;;;-1.88;60.24;93441.31;5113859;28;20057;-43
2021/03/09 00:53:31;;;;;;;5.30;3.05;;;;;;;-1.80;60.34;93445.13;5096108;28;20028;-44
2021/03/09 00:55:57;;;;;;;1.42;1.33;;;;;;;-1.97;60.39;93435.28;5113696;28;20016;-44
2021/03/09 00:58:22;;;;;;;1.50;1.23;;;;;;;-1.74;60.08;93440.56;5113806;28;20385;-46
2021/03/09 01:00:48;;;;;;;2.55;1.85;;;;;;;-1.96;60.18;93444.88;5113598;28;20016;-44
2021/03/09 01:03:13;;;;;;;1.30;1.20;;;;;;;-1.99;60.23;93443.84;5113798;28;20486;-44
2021/03/09 01:05:38;;;;;;;1.73;1.63;;;;;;;-1.90;59.59;93445.69;5113616;28;20015;-44
2021/03/09 01:08:05;;;;;;;2.38;2.22;;;;;;;-1.71;59.75;93444.28;5095927;28;20020;-43
2021/03/09 01:10:30;;;;;;;3.00;2.67;;;;;;;-1.77;59.81;93443.44;5093251;28;20103;-46
2021/03/09 01:12:55;;;;;;;3.70;1.88;;;;;;;-1.83;59.76;93439.91;5093016;28;20101;-45
2021/03/09 01:15:21;;;;;;;2.20;1.95;;;;;;;-1.80;59.64;93430.88;5092863;28;20016;-45
2021/03/09 01:17:46;;;;;;;3.85;1.85;;;;;;;-1.94;59.94;93440.50;5092980;28;20020;-44
2021/03/09 01:20:12;;;;;;;3.33;2.72;;;;;;;-2.12;60.39;93442.66;5092991;28;20022;-44
2021/03/09 01:22:38;;;;;;;1.25;0.70;;;;;;;-2.18;59.85;93439.84;5092941;28;20024;-45
2021/03/09 01:25:04;;;;;;;2.58;2.33;;;;;;;-1.95;60.29;93436.28;5092822;28;20020;-46
2021/03/09 01:27:29;;;;;;;4.97;2.97;;;;;;;-2.03;59.82;93435.19;5092785;28;20077;-44
2021/03/09 01:29:55;;;;;;;4.15;2.33;;;;;;;-1.99;60.57;93435.00;5092587;28;20024;-44
2021/03/09 01:32:21;;;;;;;5.55;3.88;;;;;;;-1.77;60.10;93430.66;5092951;28;20019;-46
2021/03/09 01:34:47;;;;;;;3.45;2.63;;;;;;;-1.87;60.04;93431.25;5092734;28;20563;-44
2021/03/09 01:37:12;;;;;;;4.10;2.28;;;;;;;-2.11;60.66;93434.06;5092682;28;20036;-46
2021/03/09 01:39:38;;;;;;;2.15;1.63;;;;;;;-2.44;60.53;93392.97;5091850;28;20540;-46
2021/03/09 01:42:03;;;;;;;2.05;1.90;;;;;;;-2.32;61.23;93427.81;5074642;28;20415;-44
2021/03/09 01:44:29;;;;;;;2.88;2.67;;;;;;;-2.18;61.32;93434.44;5092221;28;20036;-45
2021/03/09 01:46:58;;;;;;;1.83;1.65;;;;;;;-2.13;61.16;93431.09;5092430;28;20400;-45
2021/03/09 01:49:23;;;;;;;7.72;2.03;;;;;;;-2.26;61.59;93429.88;5092577;28;20024;-47
2021/03/09 01:51:49;;;;;;;6.60;3.88;;;;;;;-2.12;60.87;93437.25;5074125;28;20016;-46
2021/03/09 01:54:15;;;;;;;2.55;2.35;;;;;;;-2.27;61.40;93425.69;5092307;28;20092;-45
2021/03/09 01:56:41;;;;;;;1.73;1.63;;;;;;;-2.35;61.83;93442.28;5073442;28;20012;-45
2021/03/09 01:59:07;;;;;;;9.57;5.22;;;;;;;-2.15;61.35;93436.22;5092349;28;20035;-44
2021/03/09 02:01:34;;;;;;;6.97;4.43;;;;;;;-2.27;60.84;93437.25;5092063;28;20108;-45
2021/03/09 02:03:59;;;;;;;10.90;6.10;;;;;;;-2.26;61.16;93436.03;5092109;28;20099;-44
2021/03/09 02:06:24;;;;;;;20.13;9.18;;;;;;;-2.30;61.63;93438.19;5092343;28;20488;-44
2021/03/09 02:08:50;;;;;;;12.38;6.60;;;;;;;-2.43;61.28;93435.00;5091986;28;20024;-46
2021/03/09 02:11:45;;;;;;;16.13;7.00;;;;;;;-2.49;61.30;93442.28;5074179;28;20020;-45
2021/03/09 02:14:13;;;;;;;12.95;4.82;;;;;;;-2.78;62.86;93440.28;5091928;28;20028;-44
2021/03/09 02:16:46;;;;;;;23.63;8.25;;;;;;;-2.76;62.55;93442.53;5091921;28;20046;-45
2021/03/09 02:19:39;;;;;;;3.78;3.45;;;;;;;-2.81;62.81;93443.91;5074048;28;20028;-46
2021/03/09 02:22:23;;;;;;;7.20;4.82;;;;;;;-2.73;62.70;93445.03;5091777;28;20024;-45
2021/03/09 02:25:31;;;;;;;5.65;3.45;;;;;;;-2.79;61.98;93435.34;5091817;28;20107;-44
2021/03/09 02:28:18;;;;;;;6.07;4.55;;;;;;;-2.70;62.35;93437.97;5073937;28;20020;-45
2021/03/09 02:30:44;;;;;;;4.47;4.03;;;;;;;-2.68;62.53;93438.25;5092100;28;20028;-47
2021/03/09 02:33:14;;;;;;;11.73;4.68;;;;;;;-2.75;63.25;93438.63;5073702;28;20055;-46
2021/03/09 02:35:45;;;;;;;19.60;5.60;;;;;;;-2.62;62.71;93433.69;5091543;28;20012;-45
2021/03/09 02:38:11;;;;;;;18.88;7.10;;;;;;;-2.64;62.74;93434.16;5091677;28;20458;-45
2021/03/09 02:40:38;;;;;;;7.15;5.55;;;;;;;-2.75;63.03;93436.66;5073805;28;20107;-44
2021/03/09 02:43:10;;;;;;;8.93;5.95;;;;;;;-2.82;62.85;93442.44;5073843;28;20078;-45
2021/03/09 02:45:37;;;;;;;5.05;2.40;;;;;;;-2.74;62.54;93442.81;5073365;28;20032;-45
2021/03/09 02:48:03;;;;;;;9.48;3.55;;;;;;;-2.61;62.66;93435.19;5073258;28;20023;-44
2021/03/09 02:50:29;;;;;;;14.73;4.72;;;;;;;-2.66;63.23;93439.28;5090438;28;20115;-45
2021/03/09 02:52:58;;;;;;;3.78;2.95;;;;;;;-2.71;63.35;93437.22;5095566;28;20103;-45
2021/03/09 02:55:24;;;;;;;14.05;4.80;;;;;;;-2.66;63.18;93449.31;5094578;28;20442;-45
2021/03/09 02:57:51;;;;;;;7.03;5.78;;;;;;;-2.60;61.97;93442.09;5095651;28;20089;-46
2021/03/09 03:00:17;;;;;;;12.02;7.38;;;;;;;-2.59;62.34;93436.22;5077552;28;20091;-45
2021/03/09 03:02:43;;;;;;;13.30;5.53;;;;;;;-2.41;61.87;93448.81;5094281;28;20381;-46
2021/03/09 03:05:11;;;;;;;10.57;6.05;;;;;;;-2.68;62.90;93457.16;5077502;28;20023;-47
2021/03/09 03:07:39;;;;;;;10.63;4.43;;;;;;;-2.83;62.69;93451.72;5094469;28;20025;-45
2021/03/09 03:10:07;;;;;;;11.80;7.55;;;;;;;-2.85;63.43;93454.16;5092763;28;20078;-44
2021/03/09 03:12:33;;;;;;;6.85;5.72;;;;;;;-2.82;62.89;93455.19;5095365;28;20036;-45
2021/03/09 03:15:01;;;;;;;2.70;2.53;;;;;;;-2.90;63.48;93459.47;5095304;28;20055;-44
2021/03/09 03:17:27;;;;;;;7.67;6.97;;;;;;;-2.87;63.39;93455.81;5077490;28;20062;-45
2021/03/09 03:19:53;;;;;;;19.40;8.05;;;;;;;-2.99;63.02;93454.13;5095345;28;20272;-47
2021/03/09 03:22:19;;;;;;;20.25;8.70;;;;;;;-3.10;64.69;93444.56;5077105;28;20102;-44
2021/03/09 03:24:48;;;;;;;9.27;6.97;;;;;;;-2.95;63.89;93443.88;5095210;28;20024;-45
2021/03/09 03:27:18;;;;;;;7.25;6.55;;;;;;;-2.92;63.23;93456.47;5094024;28;20028;-44
2021/03/09 03:29:44;;;;;;;6.43;5.82;;;;;;;-3.01;63.40;93453.84;5095105;28;20024;-46
2021/03/09 03:32:10;;;;;;;7.20;4.07;;;;;;;-3.12;63.43;93455.09;5093898;28;20016;-46
2021/03/09 03:34:36;;;;;;;7.70;5.22;;;;;;;-3.16;63.65;93457.22;5093710;28;20073;-46
2021/03/09 03:37:01;;;;;;;5.28;3.63;;;;;;;-3.05;63.80;93450.56;5101977;28;20085;-44
2021/03/09 03:39:27;;;;;;;4.15;3.78;;;;;;;-3.15;63.36;93431.72;5097010;28;20475;-44
2021/03/09 03:41:52;;;;;;;4.18;3.80;;;;;;;-3.19;63.98;93452.00;5097244;28;20506;-46
2021/03/09 03:44:18;;;;;;;12.93;6.22;;;;;;;-3.24;63.51;93458.03;5114949;28;20152;-45
2021/03/09 03:46:43;;;;;;;2.70;2.15;;;;;;;-3.16;64.30;93454.53;5115190;28;20032;-45
2021/03/09 03:49:09;;;;;;;7.97;4.88;;;;;;;-3.07;63.03;93454.47;5115055;28;20038;-44
2021/03/09 03:51:43;;;;;;;5.00;4.55;;;;;;;-3.00;62.59;93458.03;5096822;28;20032;-44
2021/03/09 03:54:33;;;;;;;14.15;5.07;;;;;;;-3.07;63.44;93465.28;5096996;28;20203;-44
2021/03/09 03:57:04;;;;;;;5.30;4.57;;;;;;;-3.25;63.04;93467.34;5114960;28;20024;-45
2021/03/09 03:59:36;;;;;;;7.13;5.60;;;;;;;-3.36;63.62;93459.03;5115009;28;20029;-44
2021/03/09 04:02:07;;;;;;;16.35;5.43;;;;;;;-3.49;64.10;93447.69;5096683;28;20503;-44
2021/03/09 04:04:35;;;;;;;18.23;5.78;;;;;;;-3.22;64.28;93463.72;5114284;28;20034;-44
2021/03/09 04:07:00;;;;;;;10.10;8.40;;;;;;;-3.35;64.59;93474.00;5096609;28;20052;-46
2021/03/09 04:09:26;;;;;;;6.35;4.95;;;;;;;-3.26;64.61;93465.84;5096462;28;20498;-46
2021/03/09 04:11:52;;;;;;;6.78;3.67;;;;;;;-3.50;64.53;93462.38;5114703;28;20016;-43
2021/03/09 04:14:18;;;;;;;2.72;2.53;;;;;;;-3.50;65.30;93476.63;5096322;28;20019;-44
2021/03/09 04:16:47;;;;;;;10.95;4.45;;;;;;;-3.68;65.37;93467.91;5096606;28;20098;-44
2021/03/09 04:19:13;;;;;;;;;;;;;;;-3.79;65.75;93471.09;5114964;28;20030;-46
2021/03/09 04:21:39;;;;;;;4.07;3.75;;;;;;;-3.63;66.07;93470.72;5114489;28;19908;-45
2021/03/09 04:24:06;;;;;;;23.60;9.73;;;;;;;-3.53;66.40;93460.63;5114388;28;20023;-45
2021/03/09 04:26:32;;;;;;;7.95;6.78;;;;;;;-3.52;67.02;93462.84;5109651;28;20088;-44
2021/03/09 04:28:57;;;;;;;3.53;3.15;;;;;;;-3.54;65.96;93449.06;5075948;28;20028;-45
2021/03/09 04:31:23;;;;;;;7.10;5.72;;;;;;;-3.64;67.09;93434.16;5093903;28;20023;-45
2021/03/09 04:33:49;;;;;;;4.43;4.03;;;;;;;-3.55;67.02;93431.38;5075789;28;20027;-45
2021/03/09 04:36:16;;;;;;;3.33;3.03;;;;;;;-3.53;66.49;93455.22;5093765;28;20020;-45
2021/03/09 04:38:42;;;;;;;3.97;3.28;;;;;;;-3.55;66.92;93454.94;5093582;28;20024;-43
2021/03/09 04:41:07;;;;;;;9.73;4.80;;;;;;;-3.36;66.63;93459.03;5075596;28;20039;-44
2021/03/09 04:43:34;;;;;;;7.20;3.80;;;;;;;-3.23;65.89;93465.66;5093615;28;20412;-44
2021/03/09 04:46:01;;;;;;;7.13;5.63;;;;;;;-3.22;66.50;93480.66;5093577;28;20040;-45
2021/03/09 04:48:27;;;;;;;13.35;6.65;;;;;;;-3.40;66.56;93491.56;5093605;28;20162;-43
2021/03/09 04:51:00;;;;;;;4.57;4.22;;;;;;;-3.16;65.98;93468.03;5093447;28;20031;-45
2021/03/09 04:53:25;;;;;;;22.10;7.38;;;;;;;-3.24;66.02;93469.59;5075392;28;20027;-45
2021/03/09 04:55:51;;;;;;;6.10;4.40;;;;;;;-3.30;66.04;93474.13;5075116;28;20020;-44
2021/03/09 04:58:16;;;;;;;6.85;5.00;;;;;;;-3.23;66.29;93470.34;5075278;28;20057;-45
2021/03/09 05:00:42;;;;;;;6.50;5.85;;;;;;;-3.26;65.65;93473.94;5092703;28;20028;-45
2021/03/09 05:03:07;;;;;;;10.35;6.50;;;;;;;-3.10;65.81;93471.59;5092330;28;20093;-43
2021/03/09 05:05:33;;;;;;;5.65;4.35;;;;;;;-3.35;67.14;93474.75;5093290;28;20507;-46
2021/03/09 05:07:58;;;;;;;8.30;3.90;;;;;;;-3.31;66.11;93475.31;5093114;28;20598;-45
2021/03/09 05:10:24;;;;;;;10.30;3.80;;;;;;;-3.35;66.27;93474.75;5093211;28;20031;-44
2021/03/09 05:12:50;;;;;;;4.80;4.40;;;;;;;-3.31;66.24;93486.13;5093112;28;20030;-45
2021/03/09 05:15:18;;;;;;;8.35;4.68;;;;;;;-3.16;65.91;93484.22;5091837;28;20107;-46
2021/03/09 05:17:44;;;;;;;7.78;6.82;;;;;;;-3.24;66.48;93485.78;5106402;28;20028;-46
2021/03/09 05:20:11;;;;;;;12.73;5.28;;;;;;;-3.08;66.21;93487.34;5113171;28;20126;-43
2021/03/09 05:22:38;;;;;;;9.38;4.45;;;;;;;-3.01;65.88;93486.25;5113176;28;20519;-45
2021/03/09 05:25:05;;;;;;;6.00;5.30;;;;;;;-2.92;65.41;93475.38;5113224;28;20069;-43
2021/03/09 05:27:31;;;;;;;31.40;9.38;;;;;;;-2.75;64.58;93482.56;5113298;28;20395;-44
2021/03/09 05:29:56;;;;;;;7.78;6.13;;;;;;;-2.65;64.59;93481.31;5113185;28;20102;-44
2021/03/09 05:32:22;;;;;;;17.83;8.90;;;;;;;-2.79;65.15;93495.53;5113041;28;20026;-44
2021/03/09 05:34:47;;;;;;;24.83;10.85;;;;;;;-2.66;64.64;93487.16;5112984;28;20506;-44
2021/03/09 05:37:12;;;;;;;8.07;7.35;;;;;;;-2.83;65.34;93489.56;5113019;28;20030;-44
2021/03/09 05:39:38;;;;;;;22.67;13.40;;;;;;;-2.74;65.60;93486.78;5112859;28;20468;-45
2021/03/09 05:42:05;;;;;;;13.93;9.90;;;;;;;-2.86;65.76;93460.03;5112913;28;20521;-45
2021/03/09 05:44:33;;;;;;;14.32;10.27;;;;;;;-2.51;65.66;93485.97;5112854;28;20458;-45
2021/03/09 05:46:59;;;;;;;16.08;10.57;;;;;;;-2.45;66.00;93467.91;5094810;28;20028;-45
2021/03/09 05:49:24;;;;;;;19.77;11.90;;;;;;;-2.25;65.95;93493.56;5112730;28;20152;-45
2021/03/09 05:51:50;;;;;;;24.42;14.48;;;;;;;-2.02;64.55;93490.03;5112649;28;20110;-44
2021/03/09 05:54:16;;;;;;;16.45;10.75;;;;;;;-1.94;63.56;93478.38;5112804;28;20019;-44
2021/03/09 05:56:41;;;;;;;15.45;8.68;;;;;;;-1.70;64.08;93492.53;5112486;28;20020;-45
2021/03/09 05:59:07;;;;;;;22.15;9.82;;;;;;;-1.47;63.86;93501.00;5112717;28;20031;-44
2021/03/09 06:01:32;;;;;;;25.90;13.70;;;;;;;-1.34;63.49;93493.31;5112758;28;20081;-44
2021/03/09 06:04:00;;;;;;;15.90;9.60;;;;;;;-0.98;63.01;93498.22;5112555;28;20042;-44
2021/03/09 06:06:26;;;;;;;26.20;9.95;;;;;;;-0.88;63.34;93496.84;5076754;28;20030;-43
2021/03/09 06:08:51;;;;;;;8.80;6.78;;;;;;;-0.82;63.28;93501.13;5093981;28;20031;-45
2021/03/09 06:11:18;;;;;;;10.73;8.73;;;;;;;-0.66;62.79;93501.81;5094254;28;20077;-43
2021/03/09 06:13:44;;;;;;;19.60;8.55;;;;;;;-0.43;62.44;93504.28;5112301;28;20038;-44
2021/03/09 06:16:10;;;;;;;12.63;10.30;;;;;;;-0.19;62.19;93504.78;5112150;28;20016;-43
2021/03/09 06:18:36;;;;;;;49.95;7.25;;;;;;;0.20;61.29;93497.00;5112448;28;20173;-43
2021/03/09 06:21:10;;;;;;;9.73;7.10;;;;;;;0.57;59.65;93489.66;5112261;28;20027;-44
2021/03/09 06:23:35;;;;;;;8.85;5.03;;;;;;;1.24;59.08;93488.06;5112134;28;20020;-46
2021/03/09 06:26:02;;;;;;;8.48;5.90;;;;;;;1.93;56.71;93496.69;5111906;28;20027;-47
2021/03/09 06:28:32;;;;;;;9.75;6.50;;;;;;;2.49;56.02;93483.91;5112061;28;20020;-43
2021/03/09 06:31:01;;;;;;;11.52;5.28;;;;;;;3.44;53.23;93487.94;5112090;28;20023;-44
2021/03/09 06:33:31;;;;;;;10.55;5.97;;;;;;;4.35;50.90;93496.69;5112063;28;20093;-46
2021/03/09 06:36:00;;;;;;;9.63;6.22;;;;;;;5.41;46.58;93494.50;5111995;28;20049;-45
2021/03/09 06:38:30;;;;;;;12.43;7.43;;;;;;;6.33;44.83;93490.38;5112097;28;20032;-45
2021/03/09 06:41:12;;;;;;;15.00;8.48;;;;;;;6.94;42.93;93494.19;5111973;28;20474;-44
2021/03/09 06:43:39;;;;;;;30.48;17.08;;;;;;;6.66;42.21;93503.63;5112010;28;20466;-44
2021/03/09 06:46:14;;;;;;;35.45;18.98;;;;;;;6.36;42.95;93499.56;5111758;28;20040;-46
2021/03/09 06:48:41;;;;;;;21.77;13.32;;;;;;;5.93;44.43;93511.34;5112001;28;20051;-45
2021/03/09 06:51:07;;;;;;;29.33;12.90;;;;;;;5.14;46.73;93509.94;5111897;28;20503;-44
2021/03/09 06:53:32;;;;;;;23.17;13.32;;;;;;;5.10;47.54;93511.47;5093818;28;20113;-45
2021/03/09 06:55:58;;;;;;;30.98;17.90;;;;;;;5.01;48.12;93517.28;5111796;28;20028;-46
2021/03/09 06:58:28;;;;;;;31.33;15.23;;;;;;;4.79;49.17;93522.94;5090824;28;20024;-44
2021/03/09 07:00:55;;;;;;;22.88;14.07;;;;;;;4.75;49.28;93523.22;5090488;28;20035;-44
2021/03/09 07:03:38;;;;;;;30.23;17.55;;;;;;;4.75;48.22;93520.47;5073221;28;20036;-45
2021/03/09 07:06:04;;;;;;;32.33;16.95;;;;;;;4.95;48.32;93516.59;5091416;28;20020;-47
2021/03/09 07:08:30;;;;;;;28.85;15.80;;;;;;;5.08;48.29;93511.25;5091682;28;20031;-46
2021/03/09 07:10:56;;;;;;;28.23;15.98;;;;;;;5.13;47.55;93513.19;5091366;28;20506;-46
2021/03/09 07:13:24;;;;;;;32.40;15.68;;;;;;;4.86;49.25;93509.44;5091340;28;20535;-47
2021/03/09 07:15:50;;;;;;;22.58;14.60;;;;;;;4.79;49.53;93517.47;5091209;28;20024;-45
2021/03/09 07:18:26;;;;;;;34.33;19.48;;;;;;;4.97;50.15;93497.66;5091408;28;20024;-44
2021/03/09 07:20:53;;;;;;;32.95;18.27;;;;;;;5.36;49.72;93514.47;5091345;28;20020;-46
2021/03/09 07:23:24;;;;;;;39.58;18.27;;;;;;;5.65;47.62;93513.63;5091155;28;20051;-45
2021/03/09 07:25:52;;;;;;;22.40;13.25;;;;;;;5.72;45.80;93521.28;5091399;28;20031;-44
2021/03/09 07:28:20;;;;;;;22.27;10.68;;;;;;;5.97;43.58;93517.28;5073159;28;20028;-47
2021/03/09 07:30:47;;;;;;;17.08;9.95;;;;;;;6.19;44.09;93513.53;5091160;28;20530;-47
2021/03/09 07:33:13;;;;;;;16.25;8.18;;;;;;;6.33;42.24;93500.59;5073199;28;20107;-47
2021/03/09 07:35:39;;;;;;;15.95;6.75;;;;;;;6.47;42.96;93513.13;5090951;28;20032;-45
2021/03/09 07:38:05;;;;;;;10.73;5.15;;;;;;;6.34;41.51;93511.06;5073897;28;20039;-44
2021/03/09 07:40:33;;;;;;;15.38;6.72;;;;;;;6.26;42.01;93512.19;5076894;28;20428;-48
2021/03/09 07:42:59;;;;;;;8.20;5.30;;;;;;;6.53;41.33;93511.78;5094895;28;20488;-44
2021/03/09 07:45:28;;;;;;;11.98;5.05;;;;;;;6.65;40.07;93515.09;5094588;28;20052;-45
2021/03/09 07:48:10;;;;;;;9.18;5.38;;;;;;;6.60;40.36;93507.69;5075736;28;20071;-44
2021/03/09 07:50:41;;;;;;;11.80;6.30;;;;;;;6.48;41.80;93512.59;5076660;28;20103;-44
2021/03/09 07:53:11;;;;;;;9.75;5.05;;;;;;;6.43;41.33;93510.66;5094638;28;20102;-44
2021/03/09 07:55:40;;;;;;;6.53;3.80;;;;;;;6.48;40.16;93504.38;5094564;28;20020;-46
2021/03/09 07:58:11;;;;;;;;;;;;;;;6.47;41.44;93507.66;5094986;28;20058;-44
2021/03/09 08:00:59;;;;;;;11.52;5.53;;;;;;;6.46;41.78;93517.88;5094468;28;19912;-46
2021/03/09 08:03:27;;;;;;;11.30;5.20;;;;;;;6.27;40.09;93492.47;5094577;28;20027;-47
2021/03/09 08:05:56;;;;;;;4.35;3.88;;;;;;;6.37;40.84;93514.75;5094366;28;20020;-45
2021/03/09 08:08:43;;;;;;;8.13;4.18;;;;;;;6.38;40.68;93517.00;5076175;28;20027;-44
2021/03/09 08:11:27;;;;;;;6.93;3.67;;;;;;;6.30;41.09;93510.63;5094351;28;20024;-45
2021/03/09 08:14:04;;;;;;;12.65;5.57;;;;;;;5.94;39.96;93507.34;5094127;28;20480;-46
2021/03/09 08:16:37;;;;;;;4.30;3.47;;;;;;;5.96;39.68;93504.09;5094126;28;20024;-46
2021/03/09 08:19:07;;;;;;;8.20;5.43;;;;;;;6.02;39.12;93508.25;5094135;28;20020;-44
2021/03/09 08:21:39;;;;;;;6.07;3.30;;;;;;;6.22;38.86;93490.53;5094262;28;20078;-44
2021/03/09 08:24:05;;;;;;;9.02;3.78;;;;;;;6.22;37.66;93482.31;5094177;28;20024;-48
2021/03/09 08:26:30;;;;;;;5.15;3.90;;;;;;;6.30;39.23;93485.94;5093992;28;20098;-44
2021/03/09 08:28:56;;;;;;;5.90;3.83;;;;;;;6.44;40.40;93489.47;5093889;28;20107;-46
2021/03/09 08:31:23;;;;;;;8.95;4.22;;;;;;;6.77;40.85;93494.47;5093939;28;20508;-44
2021/03/09 08:33:55;;;;;;;12.00;5.25;;;;;;;6.90;39.51;93494.50;5093899;28;20093;-44
2021/03/09 08:36:20;;;;;;;8.45;5.07;;;;;;;7.01;39.24;93499.81;5095111;28;20024;-43
2021/03/09 08:39:11;;;;;;;7.03;4.68;;;;;;;7.03;39.14;93500.03;5114112;28;20027;-44
2021/03/09 08:41:40;;;;;;;6.47;4.50;;;;;;;7.11;39.42;93497.38;5114085;28;20106;-46
2021/03/09 08:44:12;;;;;;;7.93;3.72;;;;;;;7.28;39.09;93501.34;5113877;28;20110;-45
2021/03/09 08:46:56;;;;;;;7.72;4.05;;;;;;;7.53;37.83;93505.41;5114143;28;20057;-44
2021/03/09 08:49:34;;;;;;;9.45;4.35;;;;;;;7.60;37.28;93501.28;5113709;28;20023;-44
2021/03/09 08:52:20;;;;;;;8.45;4.75;;;;;;;7.80;36.31;93511.63;5113947;28;20035;-44
2021/03/09 08:54:51;;;;;;;13.18;6.20;;;;;;;7.91;36.97;93505.91;5104792;28;20042;-45
2021/03/09 08:57:17;;;;;;;11.15;6.13;;;;;;;7.81;34.98;93504.13;5113909;28;20061;-45
2021/03/09 08:59:44;;;;;;;10.95;5.07;;;;;;;7.88;36.35;93503.47;5113760;28;20499;-45
2021/03/09 09:02:15;;;;;;;7.68;3.78;;;;;;;8.02;35.59;93502.94;5113765;28;20019;-45
2021/03/09 09:04:45;;;;;;;5.00;4.32;;;;;;;8.23;34.48;93503.00;5113541;28;20028;-47
2021/03/09 09:07:42;;;;;;;4.82;3.40;;;;;;;8.23;34.20;93495.47;5113673;28;20025;-45
2021/03/09 09:10:19;;;;;;;9.05;4.90;;;;;;;8.29;34.75;93498.88;5113765;28;20542;-45
2021/03/09 09:12:46;;;;;;;6.15;3.85;;;;;;;8.40;34.67;93490.38;5113609;28;20092;-44
2021/03/09 09:15:17;;;;;;;8.15;4.72;;;;;;;8.52;33.94;93488.13;5113323;28;20106;-48
2021/03/09 09:17:56;;;;;;;10.57;4.20;;;;;;;8.47;34.45;93494.50;5113289;28;20027;-44
2021/03/09 09:20:24;;;;;;;9.20;4.28;;;;;;;8.50;34.11;93496.19;5113304;28;20027;-44
2021/03/09 09:22:52;;;;;;;7.72;4.18;;;;;;;8.31;33.79;93493.59;5113099;28;20028;-46
2021/03/09 09:25:18;;;;;;;11.57;4.72;;;;;;;8.35;33.86;93491.28;5113221;28;20038;-44
2021/03/09 09:27:51;;;;;;;6.93;3.60;;;;;;;8.21;33.53;93500.03;5112033;28;20027;-46
2021/03/09 09:30:23;;;;;;;11.88;4.63;;;;;;;8.20;34.31;93495.81;5094955;28;20377;-49
2021/03/09 09:32:56;;;;;;;8.25;4.45;;;;;;;8.23;33.91;93503.72;5112886;28;20488;-45
2021/03/09 09:35:24;;;;;;;5.78;3.78;;;;;;;8.33;34.33;93504.06;5112995;28;20023;-44
2021/03/09 09:37:57;;;;;;;5.03;3.58;;;;;;;8.11;34.34;93508.00;5113027;28;20023;-44
2021/03/09 09:40:26;;;;;;;7.18;4.03;;;;;;;8.28;33.48;93510.41;5112942;28;20032;-45
2021/03/09 09:42:55;;;;;;;7.90;4.00;;;;;;;8.44;34.31;93503.84;5113274;28;20023;-44
2021/03/09 09:45:21;;;;;;;9.00;4.35;;;;;;;8.49;33.22;93508.47;5112542;28;20051;-45
2021/03/09 09:47:47;;;;;;;5.35;3.08;;;;;;;8.72;33.55;93501.19;5112623;28;20108;-45
2021/03/09 09:50:13;;;;;;;9.15;3.95;;;;;;;9.16;33.09;93497.38;5112631;28;20020;-47
2021/03/09 09:52:39;;;;;;;24.70;4.65;;;;;;;9.59;32.01;93494.03;5094612;28;20019;-46
2021/03/09 09:55:05;;;;;;;3.25;2.03;;;;;;;9.96;30.62;93486.53;5094641;28;20053;-47
2021/03/09 09:57:30;;;;;;;6.53;3.30;;;;;;;10.01;31.62;93491.88;5112635;28;20028;-44
2021/03/09 10:00:10;;;;;;;4.93;2.95;;;;;;;10.25;31.81;93485.94;5112417;28;20022;-44
2021/03/09 10:02:36;;;;;;;5.72;3.75;;;;;;;10.45;30.85;93476.84;5112324;28;20043;-46
2021/03/09 10:05:01;;;;;;;6.32;2.60;;;;;;;10.33;30.47;93483.94;5112383;28;20571;-46
2021/03/09 10:07:28;;;;;;;5.82;2.83;;;;;;;10.23;30.77;93482.25;5112265;28;20026;-46
2021/03/09 10:10:19;;;;;;;6.05;3.22;;;;;;;9.72;31.11;93482.88;5112401;28;20019;-45
2021/03/09 10:12:45;;;;;;;7.43;3.40;;;;;;;9.86;31.05;93481.50;5107449;28;20050;-46
2021/03/09 10:15:11;;;;;;;7.50;3.38;;;;;;;9.92;30.48;93487.59;5112394;28;20015;-44
2021/03/09 10:17:37;;;;;;;8.10;3.72;;;;;;;9.82;31.45;93474.88;5110731;28;20107;-44
2021/03/09 10:20:15;;;;;;;4.88;2.92;;;;;;;9.94;31.19;93479.53;5112167;28;20061;-45
2021/03/09 10:22:40;;;;;;;4.75;2.88;;;;;;;9.68;31.82;93484.53;5094338;28;20024;-46
2021/03/09 10:25:15;;;;;;;2.88;1.95;;;;;;;9.57;32.51;93482.06;5093958;28;20449;-44
2021/03/09 10:27:42;;;;;;;5.85;3.08;;;;;;;9.55;32.09;93481.88;5112194;28;20020;-45
2021/03/09 10:30:08;;;;;;;5.95;2.78;;;;;;;9.60;30.73;93476.22;5112088;28;20015;-44
2021/03/09 10:32:49;;;;;;;4.35;3.95;;;;;;;9.53;31.38;93473.41;5112000;28;20384;-46
2021/03/09 10:35:14;;;;;;;6.35;2.70;;;;;;;9.60;31.18;93473.44;5112088;28;20039;-47
2021/03/09 10:37:41;;;;;;;5.55;2.38;;;;;;;9.58;31.25;93473.25;5112084;28;20084;-46
2021/03/09 10:40:14;;;;;;;4.70;1.95;;;;;;;9.47;30.97;93478.31;5112127;28;20062;-45
2021/03/09 10:42:42;;;;;;;3.83;2.25;;;;;;;9.27;31.98;93481.84;5112062;28;20121;-45
2021/03/09 10:45:21;;;;;;;3.97;3.13;;;;;;;9.21;32.60;93470.22;5111752;28;20051;-44
2021/03/09 10:47:50;;;;;;;6.93;2.92;;;;;;;9.41;32.08;93461.94;5111233;28;20273;-45
2021/03/09 10:50:17;;;;;;;4.38;2.45;;;;;;;9.53;31.33;93463.09;5111030;28;20023;-46
2021/03/09 10:52:42;;;;;;;5.20;3.38;;;;;;;9.59;31.47;93458.22;5111872;28;20032;-45
2021/03/09 10:55:08;;;;;;;4.15;3.50;;;;;;;9.64;31.04;93460.06;5111787;28;20035;-46
2021/03/09 10:57:33;;;;;;;3.80;3.42;;;;;;;9.67;31.15;93450.72;5111763;28;20039;-44
2021/03/09 10:59:59;;;;;;;2.30;1.90;;;;;;;9.62;31.12;93457.09;5111762;28;20185;-44
2021/03/09 11:02:24;;;;;;;6.22;2.95;;;;;;;9.68;30.89;93454.22;5111958;28;20035;-44
2021/03/09 11:04:50;;;;;;;5.82;3.22;;;;;;;9.60;31.07;93456.16;5111690;28;20556;-45
2021/03/09 11:07:15;;;;;;;7.40;3.00;;;;;;;9.71;32.37;93453.13;5101259;28;20035;-45
2021/03/09 11:09:41;;;;;;;3.63;2.00;;;;;;;9.78;31.71;93455.19;5091301;28;20429;-45
2021/03/09 11:12:07;;;;;;;3.03;2.72;;;;;;;10.16;32.00;93447.09;5092466;28;20400;-44
2021/03/09 11:14:32;;;;;;;3.60;3.22;;;;;;;9.95;29.33;93436.13;5095280;28;20054;-45
2021/03/09 11:16:57;;;;;;;9.82;3.67;;;;;;;9.90;29.22;93437.03;5095180;28;20089;-46
2021/03/09 11:19:23;;;;;;;5.05;3.45;;;;;;;10.03;29.70;93442.41;5095407;28;20085;-45
2021/03/09 11:21:48;;;;;;;5.75;2.67;;;;;;;10.19;31.47;93426.69;5095278;28;20020;-43
2021/03/09 11:24:14;;;;;;;5.50;3.72;;;;;;;10.30;29.25;93431.88;5095313;28;20038;-46
2021/03/09 11:26:39;;;;;;;3.28;2.63;;;;;;;10.25;29.53;93414.22;5095169;28;20077;-47
2021/03/09 11:29:05;;;;;;;6.60;3.03;;;;;;;10.69;30.16;93425.91;5095069;28;20475;-45
2021/03/09 11:31:31;;;;;;;6.10;2.63;;;;;;;10.77;29.89;93420.38;5094953;28;20067;-45
2021/03/09 11:33:56;;;;;;;3.95;2.92;;;;;;;10.87;30.49;93421.34;5095166;28;20056;-43
2021/03/09 11:36:22;;;;;;;4.85;2.72;;;;;;;11.47;28.38;93417.81;5094813;28;20024;-45
2021/03/09 11:38:48;;;;;;;4.38;3.53;;;;;;;11.70;27.87;93407.44;5094868;28;20040;-44